Ojibwa, Wisconsin
Current Conditions -  °F | °C
As of 11:15 AM on Saturday 25 Oct 2014 (Local Time) from KRCX Reporting Station
Clear Clear  
Wind Chill: 55°   Ceiling: Unl
Heat Index: 55°   Visibility: 10mi
Dew Point: 32°   Wind: 15mph
Humidity: 41%   Direction: 300°WNW
Pressure: 29.96"   Gusts: 25mph
Location:  45.8°N, 91.12°W
Report Text: KRCX 251615Z AUTO 30013G22KT 10SM CLR 13/00 A2996 RMK AO2 T01300001
Loading
Personal Weather Stations






























Interactive Weather Map New forecast layout! Learn more

10-Day Weather Forecast

Advertisements
Track Severe Weather on mobile